Gravette, AR (72736)

1:36 AM CDT on August 30, 2015 (GMT -0500)
Gravette Westside | | Change Station
CLOSE
Current Station
Personal Weather Station
Location: Gravette, AR
Elevation: 1220 ft
Nearby Weather Stations

Elev 1220 ft 36.42 °N, 94.46 °W | Updated 15 seconds ago

Overcast
Overcast
74.7 °F
Feels Like 76 °F
N
0.0
Wind Variable Wind from North
Gusts 0.0 mph

Today
High -- | Low -- °F
--% Chance of Precip.
Yesterday
High -- | Low -- °F
Precip. -- in
6:47 AM 7:48 PM
Full, 100% visible
Pressure 29.97 in
Visibility 5.0 miles
Clouds Scattered Clouds 6000 ft
Mostly Cloudy 8000 ft
Overcast 10000 ft
Heat Index 76 °F
Dew Point 67 °F
Humidity 77%
Rainfall 0.00 in
Snow Depth Not available.
UV 0 out of 12
Pollen 9.30 out of 12
Air Quality Not available.
Flu Activity Not available.
METAR KXNA 300553Z AUTO 00000KT 5SM BR SCT060 BKN080 OVC100 22/22 A3002 RMK AO2 SLP149 60041 T02220217 10272 20222 403060206 58000
Pressure 29.97 in
Visibility 5.0 miles
Clouds Scattered Clouds 6000 ft
Mostly Cloudy 8000 ft
Overcast 10000 ft
Heat Index 76 °F
Dew Point 67 °F
Humidity 77%
Rainfall 0.00 in
Snow Depth Not available.
UV 0 out of 12
Pollen 9.30 out of 12
Air Quality Not available.
Flu Activity Not available.
METAR KXNA 300553Z AUTO 00000KT 5SM BR SCT060 BKN080 OVC100 22/22 A3002 RMK AO2 SLP149 60041 T02220217 10272 20222 403060206 58000
Nowcast | as of 1:02 am CDT on August 30, 2015

At 1 am...National Weather Service Doppler radar indicated isolated showers and thunderstorms mainly along and east of U.S. Highway 69. The showers and storms were moving east at 15 miles an hour. Through 3 am...isolated showers and thunderstorms will remain possible...mainly east of U.S. Highway 69. Most places will remain dry...but a few locations will see a brief period of heavy rain and cloud to ground lightning.

×

10-Day Weather Forecast

×

Almanac

Astronomy

Aug. 30, 2015 Rise Set
Actual Time
Civil Twilight
Nautical Twilight
Astronomical Twilight
Moon
Length of Visible Light
Length of Day
Tomorrow will be .
, % of the Moon is Illuminated

Today's Extremes

State Highs State Lows

Community

WunderPhotos

Upload Photos

1,850,904 photos uploaded!

WunderBlogs® & News

Nearby

Air Quality

  Air Quality AQ Index Pollutant
Not available.

Snow Depth

Station Depth Elevation

Earthquake Activity

City Distance Mag. Time & Date
Minimum magnitude displayed is 2.5.

Coastal Water Temperatures

Place Temperature

Stations

Nearby Weather Stations

Station Location Temp. Windchill Dew Point Humidity Wind Precip. Elev Updated Type